Time;durP1;ratioP1;P1;durP2;ratioP2;P2;SDS_P1;SDS_P2;PMS_P1;PMS_P2;Temp;Humidity;BMP_temperature;BMP_pressure;BME280_temperature;BME280_humidity;BME280_pressure;Samples;Min_cycle;Max_cycle;Signal;HPM_P1;HPM_P2
2021/12/28 00:03:48;;;;;;;27.80;16.65;;;;;;;2.43;45.88;99301.22;7657605;32;40068;-74
2021/12/28 00:08:04;;;;;;;27.92;15.13;;;;;;;2.16;47.70;99306.19;7657492;32;38257;-75
2021/12/28 00:12:21;;;;;;;25.83;15.40;;;;;;;2.30;47.10;99299.56;7657624;32;37255;-73
2021/12/28 00:21:11;;;;;;;29.48;16.92;;;;;;;2.35;45.77;99282.75;7657399;32;39738;-74
2021/12/28 00:25:28;;;;;;;27.05;15.57;;;;;;;2.44;45.91;99292.09;7657314;32;38495;-74
2021/12/28 00:29:44;;;;;;;27.23;15.43;;;;;;;2.25;46.70;99286.78;7657213;32;37022;-73
2021/12/28 00:34:00;;;;;;;31.40;16.12;;;;;;;2.01;47.83;99288.56;7657367;32;39761;-73
2021/12/28 00:38:25;;;;;;;28.55;15.15;;;;;;;2.05;47.57;99287.09;7660174;32;39893;-73
2021/12/28 00:42:41;;;;;;;30.45;16.08;;;;;;;2.32;47.32;99288.56;7660168;32;37865;-74
2021/12/28 00:46:57;;;;;;;31.48;17.00;;;;;;;2.25;47.90;99289.47;7660270;32;37725;-75
2021/12/28 00:51:14;;;;;;;31.55;17.25;;;;;;;2.36;47.98;99289.75;7660108;32;39093;-73
2021/12/28 00:55:30;;;;;;;27.92;16.73;;;;;;;2.36;46.74;99290.59;7660104;32;39947;-73
2021/12/28 00:59:47;;;;;;;33.30;17.33;;;;;;;2.58;45.42;99282.75;7660020;32;38636;-73
2021/12/28 01:04:03;;;;;;;29.70;17.42;;;;;;;2.35;47.14;99288.12;7646361;32;37168;-73
2021/12/28 01:08:19;;;;;;;32.55;18.50;;;;;;;2.58;46.42;99284.66;7659611;32;39410;-73
2021/12/28 01:12:35;;;;;;;31.27;18.02;;;;;;;2.46;45.89;99284.63;7659851;32;40079;-74
2021/12/28 01:16:56;;;;;;;33.55;17.20;;;;;;;2.36;46.56;99273.59;7659769;32;37710;-73
2021/12/28 01:21:12;;;;;;;35.67;19.20;;;;;;;2.78;45.77;99265.47;7659734;32;37978;-73
2021/12/28 01:25:28;;;;;;;29.17;17.65;;;;;;;2.75;45.51;99271.31;7659634;32;39309;-74
2021/12/28 01:29:44;;;;;;;37.97;18.70;;;;;;;2.67;45.73;99285.13;7659610;32;40829;-73
2021/12/28 01:34:00;;;;;;;36.83;18.85;;;;;;;2.62;45.64;99278.56;7659513;32;38699;-73
2021/12/28 01:38:17;;;;;;;37.53;18.87;;;;;;;2.63;45.82;99274.81;7659540;32;37279;-72
2021/12/28 01:42:33;;;;;;;38.20;19.67;;;;;;;2.39;46.52;99273.16;7659431;32;39327;-73
2021/12/28 01:46:49;;;;;;;35.72;19.50;;;;;;;2.56;46.36;99273.28;7658491;32;40827;-73
2021/12/28 01:51:20;;;;;;;38.28;19.23;;;;;;;2.52;46.61;99277.47;7645629;32;38807;-73
2021/12/28 01:55:38;;;;;;;38.17;18.85;;;;;;;2.77;45.58;99275.41;7659364;32;37229;-74
2021/12/28 01:59:54;;;;;;;32.20;18.20;;;;;;;2.91;45.97;99272.50;7645589;32;38339;-74
2021/12/28 02:04:17;;;;;;;36.35;19.70;;;;;;;2.77;46.89;99269.22;7659199;32;39963;-73
2021/12/28 02:08:34;;;;;;;38.42;19.75;;;;;;;2.77;46.62;99269.22;7658983;32;37576;-74
2021/12/28 02:12:50;;;;;;;31.10;19.42;;;;;;;2.81;45.87;99262.31;7659098;32;37391;-74
2021/12/28 02:17:06;;;;;;;34.22;19.35;;;;;;;2.57;46.93;99251.53;7659080;32;39415;-74
2021/12/28 02:21:22;;;;;;;36.15;18.65;;;;;;;2.62;47.59;99253.50;7658953;32;39965;-75
2021/12/28 02:25:39;;;;;;;41.97;18.48;;;;;;;2.80;47.28;99252.59;7658894;32;38680;-74
2021/12/28 02:29:55;;;;;;;33.25;18.15;;;;;;;2.85;47.35;99254.59;7658956;32;37183;-74
2021/12/28 02:34:12;;;;;;;35.30;18.10;;;;;;;2.82;47.70;99256.69;7658933;32;40009;-74
2021/12/28 02:38:30;;;;;;;33.15;18.45;;;;;;;2.82;47.95;99250.50;7645260;32;40847;-73
2021/12/28 02:42:46;;;;;;;34.13;18.60;;;;;;;2.82;47.92;99239.72;7658443;32;37836;-73
2021/12/28 02:47:03;;;;;;;31.52;18.52;;;;;;;2.79;48.56;99232.94;7658791;32;37641;-73
2021/12/28 02:51:19;;;;;;;33.15;17.70;;;;;;;3.10;48.15;99227.41;7658693;32;39327;-73
2021/12/28 02:55:37;;;;;;;31.87;18.35;;;;;;;3.00;48.48;99220.75;7658638;32;40728;-74
2021/12/28 02:59:53;;;;;;;36.00;18.10;;;;;;;2.79;49.13;99221.34;7658156;32;38614;-74
2021/12/28 03:04:09;;;;;;;37.90;19.87;;;;;;;2.65;49.75;99219.94;7658512;32;37016;-73
2021/12/28 03:08:28;;;;;;;31.12;17.50;;;;;;;2.48;50.25;99209.06;7658251;32;39412;-74
2021/12/28 03:12:44;;;;;;;34.35;17.83;;;;;;;2.43;50.52;99215.97;7658497;32;39973;-74
2021/12/28 03:17:00;;;;;;;34.08;18.50;;;;;;;2.54;50.41;99222.41;7658275;32;38645;-74
2021/12/28 03:21:19;;;;;;;36.25;17.50;;;;;;;2.27;51.46;99223.87;7658238;32;37286;-69
2021/12/28 03:25:35;;;;;;;35.50;18.08;;;;;;;2.31;51.85;99208.91;7658394;32;38339;-75
2021/12/28 03:29:53;;;;;;;35.08;18.05;;;;;;;2.84;50.72;99202.59;7658263;32;39704;-74
2021/12/28 03:34:09;;;;;;;31.87;18.20;;;;;;;2.67;51.35;99205.19;7644789;32;38707;-74
2021/12/28 03:38:25;;;;;;;30.83;17.50;;;;;;;2.68;51.20;99201.47;7658136;32;37392;-74
2021/12/28 03:42:42;;;;;;;35.20;15.73;;;;;;;2.21;52.39;99199.56;7658032;32;39531;-75
2021/12/28 03:46:58;;;;;;;31.48;18.33;;;;;;;2.73;51.42;99206.16;7657862;32;40819;-74
2021/12/28 03:51:15;;;;;;;30.77;16.42;;;;;;;2.43;52.08;99201.66;7657899;32;38683;-74
2021/12/28 03:55:31;;;;;;;32.00;17.77;;;;;;;2.80;51.56;99198.75;7657907;32;38453;-73
2021/12/28 03:59:48;;;;;;;34.63;17.12;;;;;;;2.46;52.47;99203.09;7657863;32;38990;-74
2021/12/28 04:04:04;;;;;;;30.42;17.05;;;;;;;2.60;52.38;99202.63;7657608;32;39860;-74
2021/12/28 04:08:23;;;;;;;30.37;16.37;;;;;;;2.82;51.71;99197.47;7643471;32;38193;-73
2021/12/28 04:12:40;;;;;;;30.70;16.33;;;;;;;2.80;52.13;99199.56;7657021;32;37361;-74
2021/12/28 04:16:56;;;;;;;34.47;16.85;;;;;;;2.50;53.83;99204.25;7657558;32;39325;-74
2021/12/28 04:21:12;;;;;;;30.75;15.82;;;;;;;2.51;54.26;99200.53;7657399;32;40902;-73
2021/12/28 04:25:28;;;;;;;29.15;15.65;;;;;;;2.40;54.53;99211.03;7657252;32;37994;-74
2021/12/28 04:29:46;;;;;;;28.83;16.40;;;;;;;2.52;54.79;99218.28;7657212;32;37934;-73
2021/12/28 04:34:02;;;;;;;28.00;16.40;;;;;;;2.89;53.42;99208.09;7657174;32;40274;-73
2021/12/28 04:38:19;;;;;;;32.70;16.92;;;;;;;2.79;53.50;99224.88;7656930;32;39979;-73
2021/12/28 04:42:35;;;;;;;30.95;15.93;;;;;;;2.59;53.74;99222.50;7656726;32;38627;-74
2021/12/28 04:46:53;;;;;;;31.70;17.23;;;;;;;2.71;53.68;99219.00;7656788;32;37965;-74
2021/12/28 04:51:09;;;;;;;35.08;18.60;;;;;;;2.45;53.71;99213.03;7656683;32;38266;-74
2021/12/28 04:55:25;;;;;;;32.72;18.73;;;;;;;2.60;53.25;99216.09;7656613;32;41224;-74
2021/12/28 04:59:41;;;;;;;31.58;17.27;;;;;;;2.34;53.92;99206.56;7656495;32;37946;-74
2021/12/28 05:03:57;;;;;;;34.10;18.60;;;;;;;2.23;54.27;99207.41;7656366;32;37683;-74
2021/12/28 05:08:14;;;;;;;31.00;18.12;;;;;;;2.63;53.29;99204.03;7656246;32;39000;-74
2021/12/28 05:12:30;;;;;;;33.58;18.90;;;;;;;2.72;53.08;99208.00;7656085;32;40036;-74
2021/12/28 05:16:47;;;;;;;31.95;18.85;;;;;;;2.60;53.02;99213.41;7655974;32;38104;-73
2021/12/28 05:21:03;;;;;;;33.05;17.92;;;;;;;3.03;52.12;99221.34;7657220;32;37212;-74
2021/12/28 05:25:20;;;;;;;33.72;18.80;;;;;;;2.77;52.71;99235.03;7659732;32;40086;-74
2021/12/28 05:29:36;;;;;;;34.97;18.02;;;;;;;2.79;52.49;99234.81;7659588;32;40091;-73
2021/12/28 05:33:56;;;;;;;35.47;18.90;;;;;;;2.88;52.00;99238.78;7659464;32;37864;-74
2021/12/28 05:38:12;;;;;;;35.40;18.90;;;;;;;2.48;52.88;99225.19;7659935;32;38144;-74
2021/12/28 05:42:28;;;;;;;34.53;18.27;;;;;;;2.78;52.23;99236.69;7659387;32;39513;-73
2021/12/28 05:46:46;;;;;;;34.40;18.55;;;;;;;2.47;53.30;99232.47;7659398;32;40792;-72
2021/12/28 05:51:02;;;;;;;39.80;19.85;;;;;;;2.87;52.06;99241.72;7659310;32;38654;-73
2021/12/28 05:55:21;;;;;;;32.75;18.30;;;;;;;2.31;53.57;99247.41;7659339;32;37311;-74
2021/12/28 05:59:37;;;;;;;36.85;19.25;;;;;;;2.46;53.46;99263.09;7659393;32;39442;-73
2021/12/28 06:03:54;;;;;;;36.85;18.80;;;;;;;2.45;53.18;99266.84;7659217;32;40540;-73
2021/12/28 06:08:10;;;;;;;36.05;19.70;;;;;;;2.77;52.69;99264.63;7659019;32;37755;-74
2021/12/28 06:12:46;;;;;;;32.17;17.95;;;;;;;2.51;53.52;99265.09;7659205;32;36999;-73
2021/12/28 06:17:02;;;;;;;33.42;18.58;;;;;;;2.73;52.96;99268.06;7659060;32;39321;-73
2021/12/28 06:21:18;;;;;;;38.38;18.45;;;;;;;2.54;53.53;99270.84;7658926;32;40836;-73
2021/12/28 06:25:34;;;;;;;32.72;18.80;;;;;;;2.34;54.69;99267.63;7658903;32;37864;-72
2021/12/28 06:29:51;;;;;;;31.98;17.58;;;;;;;2.43;54.75;99268.94;7645280;32;37011;-74
2021/12/28 06:34:07;;;;;;;35.33;18.73;;;;;;;2.34;55.44;99281.91;7658464;32;39397;-73
2021/12/28 06:38:23;;;;;;;37.63;18.27;;;;;;;2.41;55.47;99273.72;7645136;32;39921;-73
2021/12/28 06:42:40;;;;;;;39.17;19.37;;;;;;;2.32;56.39;99288.56;7658653;32;37953;-74
2021/12/28 06:46:56;;;;;;;36.92;19.90;;;;;;;1.58;59.84;99280.66;7658806;32;36936;-74
2021/12/28 06:51:12;;;;;;;43.33;19.90;;;;;;;2.35;58.03;99282.75;7658834;32;39080;-72
2021/12/28 06:55:28;;;;;;;34.45;18.67;;;;;;;1.73;60.88;99275.72;7658665;32;40811;-73
2021/12/28 06:59:45;;;;;;;46.92;18.70;;;;;;;2.21;59.61;99277.56;7658482;32;37973;-72
2021/12/28 07:04:01;;;;;;;41.80;19.95;;;;;;;2.46;59.26;99284.63;7658590;32;37569;-73
2021/12/28 07:08:17;;;;;;;42.35;19.55;;;;;;;2.77;58.76;99277.28;7658573;32;40276;-73
2021/12/28 07:12:34;;;;;;;39.55;19.85;;;;;;;1.62;62.57;99285.37;7658581;32;39643;-72
2021/12/28 07:16:50;;;;;;;37.53;18.25;;;;;;;1.67;63.09;99301.66;7658388;32;38728;-72
2021/12/28 07:21:07;;;;;;;45.05;20.20;;;;;;;1.94;62.33;99292.41;7658326;32;37267;-72
2021/12/28 07:25:24;;;;;;;37.30;18.60;;;;;;;1.88;62.23;99294.16;7658358;32;40033;-72
2021/12/28 07:29:41;;;;;;;43.25;18.70;;;;;;;2.30;61.05;99302.25;7658303;32;38952;-72
2021/12/28 07:33:57;;;;;;;43.10;18.45;;;;;;;2.23;60.95;99313.09;7658146;32;37540;-73
2021/12/28 07:38:14;;;;;;;40.30;19.98;;;;;;;2.33;61.60;99317.09;7658195;32;37688;-73
2021/12/28 07:42:31;;;;;;;36.80;18.80;;;;;;;2.25;61.79;99312.88;7657951;32;39792;-73
2021/12/28 07:46:47;;;;;;;38.05;19.05;;;;;;;2.46;61.02;99316.09;7656959;32;39705;-73
2021/12/28 07:51:04;;;;;;;34.70;17.90;;;;;;;2.05;62.73;99326.59;7657961;32;38478;-73
2021/12/28 07:55:20;;;;;;;35.95;18.42;;;;;;;2.28;61.67;99325.03;7658043;32;37015;-72
2021/12/28 07:59:36;;;;;;;36.65;19.02;;;;;;;2.77;60.24;99329.25;7657900;32;39472;-73
2021/12/28 08:03:53;;;;;;;45.30;19.83;;;;;;;2.60;60.87;99322.91;7657788;32;39876;-72
2021/12/28 08:08:09;;;;;;;36.35;17.75;;;;;;;2.43;61.73;99311.97;7657476;32;38646;-72
2021/12/28 08:12:25;;;;;;;46.72;19.67;;;;;;;2.77;60.54;99312.28;7657642;32;37299;-72
2021/12/28 08:16:41;;;;;;;39.22;19.70;;;;;;;2.52;61.92;99316.00;7657505;32;40120;-73
2021/12/28 08:20:57;;;;;;;35.55;19.17;;;;;;;2.64;61.69;99321.41;7657403;32;40870;-73
2021/12/28 08:25:16;;;;;;;39.08;17.87;;;;;;;2.19;63.50;99317.31;7657113;32;37966;-73
2021/12/28 08:29:32;;;;;;;34.70;17.48;;;;;;;2.52;62.62;99310.62;7657211;32;37206;-72
2021/12/28 08:33:48;;;;;;;34.55;16.92;;;;;;;2.56;62.59;99311.78;7657123;32;39355;-73
2021/12/28 08:38:04;;;;;;;33.10;16.90;;;;;;;2.47;63.76;99317.72;7642649;32;40845;-73
2021/12/28 08:42:21;;;;;;;34.60;16.05;;;;;;;2.37;63.13;99312.91;7656077;32;37642;-72
2021/12/28 08:46:39;;;;;;;29.48;15.07;;;;;;;2.58;62.10;99325.81;7656332;32;36860;-72
2021/12/28 08:50:55;;;;;;;31.33;16.12;;;;;;;2.49;62.43;99332.59;7660290;32;39379;-72
2021/12/28 08:55:12;;;;;;;30.90;14.80;;;;;;;2.69;65.41;99334.16;7682796;32;40020;-72
2021/12/28 08:59:28;;;;;;;28.98;15.43;;;;;;;2.66;62.25;99332.75;7681945;32;37981;-72
2021/12/28 09:03:44;;;;;;;35.88;16.58;;;;;;;2.11;63.47;99330.25;7685970;32;37351;-71
2021/12/28 09:08:03;;;;;;;27.62;14.63;;;;;;;2.55;62.22;99320.09;7685111;32;40163;-71
2021/12/28 09:12:19;;;;;;;28.23;15.38;;;;;;;2.52;62.00;99316.00;7685297;32;41299;-73
2021/12/28 09:16:36;;;;;;;33.42;18.87;;;;;;;2.84;60.97;99309.50;7685254;32;39118;-72
2021/12/28 09:20:52;;;;;;;34.25;20.92;;;;;;;2.48;61.40;99309.41;7671586;32;37296;-72
2021/12/28 09:25:08;;;;;;;33.47;17.12;;;;;;;2.75;60.85;99300.94;7671547;32;39543;-72
2021/12/28 09:29:29;;;;;;;33.90;19.05;;;;;;;2.71;61.04;99292.50;7684640;32;40716;-71
2021/12/28 09:33:45;;;;;;;35.17;17.83;;;;;;;2.99;59.60;99307.16;7685860;32;38630;-72
2021/12/28 09:38:02;;;;;;;30.75;16.95;;;;;;;2.61;60.91;99297.66;7685062;32;37260;-72
2021/12/28 09:42:19;;;;;;;33.58;18.10;;;;;;;3.00;59.46;99289.94;7675869;32;39278;-71
2021/12/28 09:46:35;;;;;;;33.92;17.85;;;;;;;2.84;61.44;99291.47;7676718;32;39732;-72
2021/12/28 09:50:51;;;;;;;32.85;18.83;;;;;;;2.98;59.24;99298.28;7684482;32;37986;-73
2021/12/28 09:55:07;;;;;;;35.85;17.87;;;;;;;2.92;59.34;99296.50;7685446;32;37584;-72
2021/12/28 09:59:24;;;;;;;38.92;20.95;;;;;;;2.54;60.87;99302.31;7684929;32;39068;-72
2021/12/28 10:03:40;;;;;;;37.88;20.40;;;;;;;2.81;59.71;99291.91;7684684;32;39999;-72
2021/12/28 10:07:59;;;;;;;39.05;20.67;;;;;;;2.87;59.45;99287.50;7683717;32;37994;-72
2021/12/28 10:12:31;;;;;;;34.90;20.08;;;;;;;2.80;59.78;99290.28;7684858;32;37968;-72
2021/12/28 10:16:55;;;;;;;35.42;19.42;;;;;;;2.67;60.50;99280.56;7684844;32;39389;-71
2021/12/28 10:21:11;;;;;;;34.97;18.87;;;;;;;2.99;58.85;99285.63;7684152;32;40016;-72
2021/12/28 10:25:36;;;;;;;33.80;19.65;;;;;;;2.99;58.98;99281.03;7685012;32;37937;-72
2021/12/28 10:29:54;;;;;;;35.95;19.23;;;;;;;2.47;59.98;99280.03;7684420;32;38064;-72
2021/12/28 10:34:19;;;;;;;39.00;20.27;;;;;;;2.44;61.20;99275.97;7684451;32;39370;-72
2021/12/28 10:38:38;;;;;;;34.42;21.23;;;;;;;2.92;59.73;99266.06;7684180;32;40015;-72
2021/12/28 10:43:16;;;;;;;35.95;21.12;;;;;;;3.03;59.46;99267.91;7684125;32;37935;-72
2021/12/28 10:47:32;;;;;;;36.80;19.40;;;;;;;2.97;59.66;99269.69;7684484;32;37673;-77
2021/12/28 10:51:48;;;;;;;37.72;20.33;;;;;;;2.94;59.22;99272.84;7683870;32;38868;-77
2021/12/28 10:56:07;;;;;;;35.67;20.08;;;;;;;2.62;60.31;99264.28;7671094;32;40789;-77
2021/12/28 11:00:31;;;;;;;42.60;24.50;;;;;;;2.76;59.20;99254.09;7684574;32;38118;-78
2021/12/28 11:04:47;;;;;;;36.50;21.23;;;;;;;2.80;59.77;99257.97;7684817;32;36304;-77
2021/12/28 11:09:06;;;;;;;42.50;21.73;;;;;;;2.76;60.11;99263.03;7671178;32;39002;-79
2021/12/28 11:13:26;;;;;;;45.90;22.52;;;;;;;2.84;59.26;99253.75;7684838;32;39878;-79
2021/12/28 11:17:42;;;;;;;41.97;22.23;;;;;;;2.85;59.67;99255.41;7684688;32;37697;-78
2021/12/28 11:22:00;;;;;;;43.85;21.90;;;;;;;2.43;60.92;99252.78;7671004;32;37460;-78
2021/12/28 11:26:23;;;;;;;42.65;22.00;;;;;;;2.47;60.96;99243.22;7684900;32;39289;-80
2021/12/28 11:30:56;;;;;;;45.90;22.30;;;;;;;2.41;61.23;99241.44;7684882;32;39625;-79
2021/12/28 11:35:12;;;;;;;40.78;22.52;;;;;;;2.57;60.96;99242.62;7684619;32;38703;-79
2021/12/28 11:39:35;;;;;;;44.80;22.40;;;;;;;2.24;62.26;99228.69;7684470;32;38099;-79
2021/12/28 11:43:51;;;;;;;45.20;24.63;;;;;;;2.09;63.08;99224.75;7683505;32;40035;-80
2021/12/28 11:48:08;;;;;;;44.03;22.23;;;;;;;2.60;61.25;99213.41;7684329;32;40425;-80
2021/12/28 11:52:24;;;;;;;45.00;23.02;;;;;;;2.39;62.92;99195.13;7684394;32;38102;-78
2021/12/28 11:56:44;;;;;;;42.47;24.20;;;;;;;2.72;61.62;99191.03;7684333;32;37497;-78
2021/12/28 12:01:00;;;;;;;50.42;24.55;;;;;;;2.61;62.38;99182.72;7683636;32;38899;-78
2021/12/28 12:05:24;;;;;;;50.45;24.60;;;;;;;2.39;63.48;99176.28;7683956;32;40844;-78
2021/12/28 12:09:52;;;;;;;47.72;24.00;;;;;;;2.26;63.81;99182.72;7682673;32;37592;-78
2021/12/28 12:14:09;;;;;;;44.65;22.98;;;;;;;2.23;64.26;99170.56;7682550;32;38574;-78
2021/12/28 12:18:30;;;;;;;49.08;25.83;;;;;;;2.33;64.46;99167.28;7669766;32;37895;-79
2021/12/28 12:22:52;;;;;;;50.08;25.67;;;;;;;1.68;66.77;99160.03;7682829;32;39423;-78
2021/12/28 12:27:31;;;;;;;50.97;24.73;;;;;;;2.10;65.42;99149.25;7670561;32;38400;-78
2021/12/28 12:31:47;;;;;;;46.95;23.33;;;;;;;2.10;65.15;99133.09;7671544;32;37961;-78
2021/12/28 12:36:05;;;;;;;42.58;22.77;;;;;;;1.94;66.03;99123.06;7683346;32;39341;-78
2021/12/28 12:40:22;;;;;;;48.85;23.02;;;;;;;2.41;64.84;99121.19;7683428;32;39655;-77
2021/12/28 12:44:40;;;;;;;41.78;22.60;;;;;;;2.31;65.11;99115.59;7682922;32;37948;-77
2021/12/28 12:48:59;;;;;;;44.78;21.35;;;;;;;1.94;66.33;99123.06;7683233;32;39886;-78
2021/12/28 12:53:45;;;;;;;38.78;20.60;;;;;;;2.29;65.37;99122.25;7683190;32;39587;-78
2021/12/28 12:58:19;;;;;;;39.97;21.02;;;;;;;1.97;66.45;99125.28;7682993;32;40034;-78
2021/12/28 13:02:37;;;;;;;57.58;26.77;;;;;;;2.11;66.23;99118.63;7682802;32;37584;-78
2021/12/28 13:07:14;;;;;;;49.60;24.08;;;;;;;2.06;66.06;99127.38;7682818;32;37333;-78
2021/12/28 13:11:32;;;;;;;42.85;20.60;;;;;;;2.34;65.59;99130.44;7682546;32;40105;-78
2021/12/28 13:15:48;;;;;;;43.50;21.85;;;;;;;2.34;65.08;99125.06;7682619;32;40514;-77
2021/12/28 13:20:24;;;;;;;41.72;19.80;;;;;;;2.30;65.66;99135.47;7682349;32;37454;-77
2021/12/28 13:24:44;;;;;;;43.95;19.80;;;;;;;2.43;65.53;99129.03;7682392;32;38053;-78
2021/12/28 13:29:04;;;;;;;41.22;20.00;;;;;;;1.87;67.03;99133.91;7681804;32;40111;-79
2021/12/28 13:33:23;;;;;;;40.03;19.55;;;;;;;1.97;67.01;99128.78;7682263;32;40454;-78
2021/12/28 13:37:47;;;;;;;37.53;18.33;;;;;;;2.08;66.69;99139.78;7682144;32;38384;-78
2021/12/28 13:42:03;;;;;;;;;;;;;;;2.35;66.06;99148.22;7682683;32;38061;-78
2021/12/28 13:46:19;;;;;;;39.05;16.55;;;;;;;2.02;67.11;99145.03;7686094;32;39722;-77
2021/12/28 13:50:35;;;;;;;30.92;16.87;;;;;;;2.30;66.38;99129.28;7685864;32;40833;-77
2021/12/28 13:54:51;;;;;;;34.65;16.08;;;;;;;2.29;66.67;99130.31;7684990;32;38713;-78
2021/12/28 13:59:09;;;;;;;32.15;16.37;;;;;;;2.06;67.32;99129.25;7685435;32;38192;-78
2021/12/28 14:03:26;;;;;;;27.65;15.02;;;;;;;2.16;66.91;99134.06;7685472;32;38209;-78
2021/12/28 14:07:42;;;;;;;30.35;14.55;;;;;;;2.49;66.34;99117.34;7671768;32;40846;-79
2021/12/28 14:12:00;;;;;;;28.75;12.55;;;;;;;1.82;68.42;99121.16;7671668;32;38045;-78
2021/12/28 14:16:16;;;;;;;26.10;14.35;;;;;;;2.01;67.53;99121.88;7685478;32;37194;-78
2021/12/28 14:20:32;;;;;;;24.67;13.02;;;;;;;2.49;65.75;99117.34;7685516;32;39464;-78
2021/12/28 14:24:53;;;;;;;24.15;12.35;;;;;;;2.22;66.21;99112.41;7685081;32;40873;-77
2021/12/28 14:29:22;;;;;;;21.90;12.05;;;;;;;2.16;67.03;99121.44;7658427;32;37564;-77
2021/12/28 14:33:51;;;;;;;19.40;11.98;;;;;;;2.43;66.21;99126.34;7657903;32;37230;-78
2021/12/28 14:38:09;;;;;;;27.35;12.30;;;;;;;2.43;66.11;99123.66;7632414;32;40063;-78
2021/12/28 14:42:32;;;;;;;24.17;11.77;;;;;;;2.37;66.68;99116.53;7632144;32;39631;-77
2021/12/28 14:46:51;;;;;;;25.25;11.77;;;;;;;2.35;66.92;99113.25;7631895;32;38857;-78
2021/12/28 14:51:07;;;;;;;28.05;11.65;;;;;;;2.38;66.63;99110.06;7656195;32;36960;-78
2021/12/28 14:55:30;;;;;;;25.08;11.00;;;;;;;2.43;66.44;99096.75;7657244;32;39073;-79
2021/12/28 14:59:51;;;;;;;21.83;11.57;;;;;;;2.35;66.60;99114.06;7655567;32;40029;-78
2021/12/28 15:04:08;;;;;;;18.77;10.65;;;;;;;2.17;68.05;99111.50;7655503;32;38062;-77
2021/12/28 15:08:31;;;;;;;21.75;10.68;;;;;;;2.38;66.86;99107.38;7658055;32;37176;-76
2021/12/28 15:12:51;;;;;;;18.48;10.07;;;;;;;2.20;67.55;99103.78;7658339;32;39352;-79
2021/12/28 15:17:07;;;;;;;19.15;10.68;;;;;;;2.00;67.82;99116.72;7658350;32;39973;-79
2021/12/28 15:21:24;;;;;;;16.37;8.45;;;;;;;2.36;66.91;99120.25;7658206;32;37805;-79
2021/12/28 15:25:40;;;;;;;21.33;9.95;;;;;;;2.38;67.00;99113.59;7658202;32;37939;-78
2021/12/28 15:29:59;;;;;;;16.52;8.88;;;;;;;1.85;68.69;99122.56;7658200;32;39358;-79
2021/12/28 15:34:20;;;;;;;18.33;9.32;;;;;;;2.29;67.15;99119.56;7658288;32;40035;-78
2021/12/28 15:38:44;;;;;;;18.42;9.68;;;;;;;1.91;68.29;99128.88;7657979;32;37918;-78
2021/12/28 15:43:00;;;;;;;15.30;8.60;;;;;;;2.03;67.72;99135.91;7658191;32;37002;-79
2021/12/28 15:47:17;;;;;;;12.63;7.55;;;;;;;2.50;66.00;99118.97;7658220;32;39292;-79
2021/12/28 15:51:34;;;;;;;16.02;8.02;;;;;;;2.42;66.27;99114.75;7657810;32;39908;-79
2021/12/28 15:55:50;;;;;;;14.13;7.90;;;;;;;2.11;67.35;99113.25;7657846;32;37850;-79
2021/12/28 16:00:12;;;;;;;12.23;7.18;;;;;;;2.09;67.45;99112.66;7657705;32;37919;-79
2021/12/28 16:04:28;;;;;;;13.77;7.62;;;;;;;1.94;68.12;99114.97;7656943;32;40105;-78
2021/12/28 16:08:45;;;;;;;13.68;7.00;;;;;;;1.85;68.89;99119.88;7657418;32;39906;-79
2021/12/28 16:13:01;;;;;;;13.25;7.95;;;;;;;2.34;67.22;99103.53;7643602;32;37730;-78
2021/12/28 16:17:18;;;;;;;10.82;6.25;;;;;;;2.45;66.56;99113.50;7657760;32;37176;-79
2021/12/28 16:21:34;;;;;;;10.15;6.62;;;;;;;2.45;66.77;99108.09;7657424;32;39107;-79
2021/12/28 16:25:51;;;;;;;11.68;6.78;;;;;;;1.74;68.90;99109.91;7657226;32;39992;-77
2021/12/28 16:30:18;;;;;;;11.32;6.93;;;;;;;1.92;69.09;99103.66;7657266;32;36746;-78
2021/12/28 16:34:35;;;;;;;11.57;7.00;;;;;;;1.98;68.08;99113.47;7657171;32;37067;-80
2021/12/28 16:38:52;;;;;;;12.00;8.13;;;;;;;1.96;68.79;99104.81;7643653;32;39343;-78
2021/12/28 16:43:09;;;;;;;14.80;8.05;;;;;;;2.05;68.34;99114.16;7657007;32;40079;-76
2021/12/28 16:47:25;;;;;;;15.15;8.65;;;;;;;2.15;67.96;99092.91;7656814;32;37796;-77
2021/12/28 16:51:41;;;;;;;14.55;8.23;;;;;;;2.39;67.25;99092.91;7656996;32;36782;-78
2021/12/28 16:55:58;;;;;;;12.77;8.05;;;;;;;2.09;67.66;99095.69;7656726;32;39892;-78
2021/12/28 17:00:15;;;;;;;12.98;7.47;;;;;;;2.32;66.98;99108.34;7656386;32;40011;-79
2021/12/28 17:04:31;;;;;;;12.00;7.07;;;;;;;2.30;67.44;99097.00;7647391;32;282187;-79
2021/12/28 17:08:49;;;;;;;11.55;7.00;;;;;;;2.27;67.47;99092.09;7656217;32;38089;-79
2021/12/28 17:13:05;;;;;;;12.30;6.80;;;;;;;1.72;68.42;99085.94;7656358;32;39444;-77
2021/12/28 17:17:21;;;;;;;10.10;6.40;;;;;;;2.03;68.38;99076.75;7657548;32;40773;-79
2021/12/28 17:21:38;;;;;;;9.68;6.50;;;;;;;2.06;67.76;99072.78;7659779;32;37480;-78
2021/12/28 17:25:54;;;;;;;10.38;6.12;;;;;;;1.96;68.33;99075.25;7653481;32;37160;-78
2021/12/28 17:30:12;;;;;;;8.40;5.72;;;;;;;1.61;69.36;99078.72;7645966;32;39345;-79
2021/12/28 17:34:29;;;;;;;7.60;5.37;;;;;;;2.02;67.99;99079.69;7659661;32;40836;-79
2021/12/28 17:38:46;;;;;;;7.45;5.05;;;;;;;2.27;67.00;99070.56;7659432;32;38048;-79
2021/12/28 17:43:02;;;;;;;10.48;5.82;;;;;;;2.18;67.29;99068.22;7659614;32;36874;-78
2021/12/28 17:47:18;;;;;;;11.12;6.07;;;;;;;1.92;67.93;99063.31;7659279;32;39418;-79
2021/12/28 17:51:37;;;;;;;9.65;6.28;;;;;;;1.88;67.87;99058.41;7659394;32;40726;-81
2021/12/28 17:55:54;;;;;;;7.70;5.57;;;;;;;1.78;68.24;99068.91;7659327;32;37485;-79
2021/12/28 18:00:13;;;;;;;8.82;5.28;;;;;;;2.24;67.23;99071.84;7659372;32;36812;-79
2021/12/28 18:04:29;;;;;;;10.25;5.37;;;;;;;2.07;67.64;99071.75;7659120;32;40168;-79
2021/12/28 18:08:45;;;;;;;8.15;5.75;;;;;;;2.13;67.68;99070.81;7658963;32;40083;-78
2021/12/28 18:13:01;;;;;;;9.65;5.90;;;;;;;2.29;67.05;99063.06;7659114;32;37976;-78
2021/12/28 18:17:17;;;;;;;9.65;5.75;;;;;;;2.32;66.97;99073.38;7659005;32;37224;-78
2021/12/28 18:21:33;;;;;;;8.30;5.12;;;;;;;1.62;68.96;99062.34;7659037;32;39341;-78
2021/12/28 18:25:50;;;;;;;9.63;5.68;;;;;;;1.93;67.97;99056.87;7658828;32;40552;-78
2021/12/28 18:30:08;;;;;;;7.82;5.80;;;;;;;1.66;69.69;99065.41;7658090;32;37772;-79
2021/12/28 18:34:24;;;;;;;9.05;5.68;;;;;;;1.71;69.27;99062.84;7658705;32;37336;-78
2021/12/28 18:38:40;;;;;;;10.23;6.28;;;;;;;2.03;68.39;99051.75;7645491;32;39501;-79
2021/12/28 18:42:57;;;;;;;7.95;6.10;;;;;;;2.09;68.94;99042.75;7658927;32;39996;-80
2021/12/28 18:47:15;;;;;;;7.70;5.60;;;;;;;1.83;69.21;99046.72;7658813;32;37726;-77
2021/12/28 18:51:31;;;;;;;10.48;5.72;;;;;;;1.83;69.15;99039.47;7658855;32;37966;-78
2021/12/28 18:55:51;;;;;;;9.15;5.90;;;;;;;2.09;68.59;99041.91;7645292;32;39356;-79
2021/12/28 19:00:17;;;;;;;7.80;5.70;;;;;;;2.16;68.00;99037.25;7658745;32;40581;-79
2021/12/28 19:04:53;;;;;;;10.00;6.25;;;;;;;1.71;70.11;99035.13;7647801;32;38256;-78
2021/12/28 19:09:09;;;;;;;8.57;5.72;;;;;;;1.72;69.49;99037.59;7658586;32;37627;-78
2021/12/28 19:13:26;;;;;;;9.13;6.12;;;;;;;1.99;69.08;99035.25;7658661;32;39033;-78
2021/12/28 19:17:42;;;;;;;10.30;5.95;;;;;;;1.70;68.89;99045.06;7658563;32;39810;-79
2021/12/28 19:21:58;;;;;;;8.80;6.10;;;;;;;1.99;68.76;99034.44;7658452;32;37616;-79
2021/12/28 19:26:15;;;;;;;12.15;6.65;;;;;;;1.99;68.50;99032.56;7658377;32;37241;-79
2021/12/28 19:30:32;;;;;;;11.98;6.37;;;;;;;1.95;68.52;99042.16;7658383;32;39237;-78
2021/12/28 19:34:49;;;;;;;9.75;6.45;;;;;;;2.16;67.94;99032.69;7658022;32;40749;-79
2021/12/28 19:39:05;;;;;;;9.95;6.18;;;;;;;1.62;69.50;99048.09;7658187;32;38949;-79
2021/12/28 19:43:22;;;;;;;9.63;6.45;;;;;;;1.84;68.96;99035.72;7658317;32;37790;-78
2021/12/28 19:47:39;;;;;;;9.48;6.97;;;;;;;1.98;68.20;99036.31;7644644;32;39345;-79
2021/12/28 19:51:55;;;;;;;14.38;7.10;;;;;;;1.67;69.72;99030.25;7657736;32;40126;-80
2021/12/28 19:56:12;;;;;;;10.20;6.55;;;;;;;1.82;69.50;99040.50;7644219;32;38326;-80
2021/12/28 20:00:29;;;;;;;13.27;6.65;;;;;;;2.07;68.17;99023.34;7655408;32;37131;-73
2021/12/28 20:04:46;;;;;;;10.77;6.60;;;;;;;1.87;68.40;99029.06;7604583;32;39813;-73
2021/12/28 20:09:06;;;;;;;9.77;6.57;;;;;;;2.28;66.67;99034.53;7656736;32;39950;-72
2021/12/28 20:13:27;;;;;;;11.15;6.65;;;;;;;1.67;69.50;99024.03;7657013;32;37882;-73